sensor_id;sensor_type;location;lat;lon;timestamp;pressure;altitude;pressure_sealevel;temperature;humidity
37066;BME280;22981;43.080;25.550;2023-02-12T00:01:28;100693.19;;;-3.54;66.59
37066;BME280;22981;43.080;25.550;2023-02-12T00:03:56;100690.45;;;-3.53;66.61
37066;BME280;22981;43.080;25.550;2023-02-12T00:06:23;100699.42;;;-3.49;66.70
37066;BME280;22981;43.080;25.550;2023-02-12T00:08:52;100702.58;;;-3.44;66.65
37066;BME280;22981;43.080;25.550;2023-02-12T00:11:22;100701.08;;;-3.41;66.62
37066;BME280;22981;43.080;25.550;2023-02-12T00:13:51;100700.78;;;-3.37;66.59
37066;BME280;22981;43.080;25.550;2023-02-12T00:16:21;100697.38;;;-3.32;66.53
37066;BME280;22981;43.080;25.550;2023-02-12T00:18:51;100695.88;;;-3.29;66.48
37066;BME280;22981;43.080;25.550;2023-02-12T00:21:19;100693.04;;;-3.25;66.48
37066;BME280;22981;43.080;25.550;2023-02-12T00:23:47;100702.43;;;-3.29;66.44
37066;BME280;22981;43.080;25.550;2023-02-12T00:26:16;100701.25;;;-3.37;66.62
37066;BME280;22981;43.080;25.550;2023-02-12T00:28:44;100705.56;;;-3.43;66.83
37066;BME280;22981;43.080;25.550;2023-02-12T00:31:17;100694.08;;;-3.48;66.93
37066;BME280;22981;43.080;25.550;2023-02-12T00:33:45;100695.03;;;-3.49;67.08
37066;BME280;22981;43.080;25.550;2023-02-12T00:36:18;100699.68;;;-3.47;67.10
37066;BME280;22981;43.080;25.550;2023-02-12T00:38:46;100699.41;;;-3.42;67.04
37066;BME280;22981;43.080;25.550;2023-02-12T00:41:14;100701.44;;;-3.40;66.93
37066;BME280;22981;43.080;25.550;2023-02-12T00:43:42;100697.87;;;-3.39;66.94
37066;BME280;22981;43.080;25.550;2023-02-12T00:46:10;100690.42;;;-3.38;66.93
37066;BME280;22981;43.080;25.550;2023-02-12T00:48:37;100696.85;;;-3.37;66.88
37066;BME280;22981;43.080;25.550;2023-02-12T00:51:05;100694.23;;;-3.37;66.91
37066;BME280;22981;43.080;25.550;2023-02-12T00:53:33;100691.55;;;-3.42;66.92
37066;BME280;22981;43.080;25.550;2023-02-12T00:56:01;100691.38;;;-3.46;67.08
37066;BME280;22981;43.080;25.550;2023-02-12T00:58:28;100692.22;;;-3.46;67.11
37066;BME280;22981;43.080;25.550;2023-02-12T01:00:56;100691.38;;;-3.46;67.13
37066;BME280;22981;43.080;25.550;2023-02-12T01:03:24;100685.75;;;-3.47;67.18
37066;BME280;22981;43.080;25.550;2023-02-12T01:05:52;100680.52;;;-3.47;67.16
37066;BME280;22981;43.080;25.550;2023-02-12T01:08:20;100680.16;;;-3.48;67.18
37066;BME280;22981;43.080;25.550;2023-02-12T01:10:56;100676.81;;;-3.50;67.16
37066;BME280;22981;43.080;25.550;2023-02-12T01:13:24;100677.41;;;-3.60;67.23
37066;BME280;22981;43.080;25.550;2023-02-12T01:16:12;100681.36;;;-3.67;67.35
37066;BME280;22981;43.080;25.550;2023-02-12T01:18:38;100679.29;;;-3.69;67.43
37066;BME280;22981;43.080;25.550;2023-02-12T01:21:11;100675.84;;;-3.69;67.41
37066;BME280;22981;43.080;25.550;2023-02-12T01:23:39;100672.75;;;-3.69;67.37
37066;BME280;22981;43.080;25.550;2023-02-12T01:26:09;100671.25;;;-3.66;67.30
37066;BME280;22981;43.080;25.550;2023-02-12T01:28:39;100674.16;;;-3.63;67.26
37066;BME280;22981;43.080;25.550;2023-02-12T01:31:09;100677.61;;;-3.63;67.22
37066;BME280;22981;43.080;25.550;2023-02-12T01:33:37;100677.13;;;-3.62;67.21
37066;BME280;22981;43.080;25.550;2023-02-12T01:36:05;100675.71;;;-3.61;67.25
37066;BME280;22981;43.080;25.550;2023-02-12T01:38:33;100667.03;;;-3.61;67.26
37066;BME280;22981;43.080;25.550;2023-02-12T01:41:05;100663.86;;;-3.59;67.30
37066;BME280;22981;43.080;25.550;2023-02-12T01:43:34;100655.53;;;-3.59;67.31
37066;BME280;22981;43.080;25.550;2023-02-12T01:46:02;100646.62;;;-3.56;67.28
37066;BME280;22981;43.080;25.550;2023-02-12T01:48:33;100644.39;;;-3.55;67.28
37066;BME280;22981;43.080;25.550;2023-02-12T01:51:01;100640.83;;;-3.54;67.30
37066;BME280;22981;43.080;25.550;2023-02-12T01:53:34;100638.05;;;-3.58;67.30
37066;BME280;22981;43.080;25.550;2023-02-12T01:56:03;100623.42;;;-3.68;67.43
37066;BME280;22981;43.080;25.550;2023-02-12T01:58:37;100631.09;;;-3.72;67.54
37066;BME280;22981;43.080;25.550;2023-02-12T02:01:06;100624.94;;;-3.78;67.69
37066;BME280;22981;43.080;25.550;2023-02-12T02:03:35;100613.52;;;-3.77;67.79
37066;BME280;22981;43.080;25.550;2023-02-12T02:06:07;100620.70;;;-3.73;67.81
37066;BME280;22981;43.080;25.550;2023-02-12T02:08:34;100621.72;;;-3.69;67.77
37066;BME280;22981;43.080;25.550;2023-02-12T02:11:02;100626.56;;;-3.63;67.71
37066;BME280;22981;43.080;25.550;2023-02-12T02:13:31;100622.72;;;-3.64;67.66
37066;BME280;22981;43.080;25.550;2023-02-12T02:16:22;100616.78;;;-3.73;67.77
37066;BME280;22981;43.080;25.550;2023-02-12T02:19:03;100612.13;;;-3.75;67.82
37066;BME280;22981;43.080;25.550;2023-02-12T02:24:15;100606.23;;;-3.72;67.78
37066;BME280;22981;43.080;25.550;2023-02-12T02:27:04;100597.99;;;-3.73;67.78
37066;BME280;22981;43.080;25.550;2023-02-12T02:32:37;100606.43;;;-3.75;67.92
37066;BME280;22981;43.080;25.550;2023-02-12T02:40:38;100598.33;;;-3.65;67.93
37066;BME280;22981;43.080;25.550;2023-02-12T02:43:14;100604.13;;;-3.60;67.88
37066;BME280;22981;43.080;25.550;2023-02-12T02:45:41;100591.17;;;-3.56;67.84
37066;BME280;22981;43.080;25.550;2023-02-12T02:51:07;100600.56;;;-3.59;67.92
37066;BME280;22981;43.080;25.550;2023-02-12T02:53:36;100611.20;;;-3.55;67.93
37066;BME280;22981;43.080;25.550;2023-02-12T02:56:05;100604.44;;;-3.52;67.90
37066;BME280;22981;43.080;25.550;2023-02-12T02:58:38;100611.39;;;-3.58;67.88
37066;BME280;22981;43.080;25.550;2023-02-12T03:03:48;100609.11;;;-3.69;68.13
37066;BME280;22981;43.080;25.550;2023-02-12T03:06:21;100616.23;;;-3.71;68.20
37066;BME280;22981;43.080;25.550;2023-02-12T03:08:50;100616.87;;;-3.68;68.21
37066;BME280;22981;43.080;25.550;2023-02-12T03:11:27;100617.41;;;-3.63;68.19
37066;BME280;22981;43.080;25.550;2023-02-12T03:14:33;100611.51;;;-3.59;68.17
37066;BME280;22981;43.080;25.550;2023-02-12T03:16:38;100615.20;;;-3.56;68.18
37066;BME280;22981;43.080;25.550;2023-02-12T03:19:13;100618.66;;;-3.56;68.12
37066;BME280;22981;43.080;25.550;2023-02-12T03:24:20;100617.58;;;-3.59;68.20
37066;BME280;22981;43.080;25.550;2023-02-12T03:26:50;100604.73;;;-3.56;68.28
37066;BME280;22981;43.080;25.550;2023-02-12T03:29:17;100608.89;;;-3.59;68.24
37066;BME280;22981;43.080;25.550;2023-02-12T03:32:01;100609.63;;;-3.64;68.35
37066;BME280;22981;43.080;25.550;2023-02-12T03:37:07;100608.08;;;-3.67;68.50
37066;BME280;22981;43.080;25.550;2023-02-12T03:39:49;100609.80;;;-3.60;68.52
37066;BME280;22981;43.080;25.550;2023-02-12T03:42:20;100611.75;;;-3.57;68.52
37066;BME280;22981;43.080;25.550;2023-02-12T03:45:10;100616.21;;;-3.52;68.51
37066;BME280;22981;43.080;25.550;2023-02-12T03:47:45;100604.05;;;-3.45;68.49
37066;BME280;22981;43.080;25.550;2023-02-12T03:52:56;100603.95;;;-3.31;68.36
37066;BME280;22981;43.080;25.550;2023-02-12T03:55:24;100603.87;;;-3.30;68.29
37066;BME280;22981;43.080;25.550;2023-02-12T03:57:54;100601.09;;;-3.34;68.36
37066;BME280;22981;43.080;25.550;2023-02-12T04:00:23;100599.61;;;-3.38;68.54
37066;BME280;22981;43.080;25.550;2023-02-12T04:02:53;100611.09;;;-3.33;68.64
37066;BME280;22981;43.080;25.550;2023-02-12T04:05:23;100600.97;;;-3.32;68.62
37066;BME280;22981;43.080;25.550;2023-02-12T04:07:52;100604.31;;;-3.30;68.62
37066;BME280;22981;43.080;25.550;2023-02-12T04:10:26;100602.64;;;-3.31;68.65
37066;BME280;22981;43.080;25.550;2023-02-12T04:13:13;100610.61;;;-3.33;68.76
37066;BME280;22981;43.080;25.550;2023-02-12T04:15:52;100609.66;;;-3.32;68.82
37066;BME280;22981;43.080;25.550;2023-02-12T04:18:27;100612.92;;;-3.28;68.76
37066;BME280;22981;43.080;25.550;2023-02-12T04:23:47;100618.41;;;-3.25;68.79
37066;BME280;22981;43.080;25.550;2023-02-12T04:32:11;100618.47;;;-3.33;69.04
37066;BME280;22981;43.080;25.550;2023-02-12T04:37:41;100627.29;;;-3.21;68.98
37066;BME280;22981;43.080;25.550;2023-02-12T04:40:11;100626.59;;;-3.17;68.89
37066;BME280;22981;43.080;25.550;2023-02-12T04:42:50;100630.44;;;-3.16;68.90
37066;BME280;22981;43.080;25.550;2023-02-12T04:45:22;100631.16;;;-3.14;68.95
37066;BME280;22981;43.080;25.550;2023-02-12T04:47:46;100644.53;;;-3.11;68.96
37066;BME280;22981;43.080;25.550;2023-02-12T04:50:13;100645.84;;;-3.11;69.02
37066;BME280;22981;43.080;25.550;2023-02-12T04:52:41;100653.70;;;-3.11;69.12
37066;BME280;22981;43.080;25.550;2023-02-12T04:55:08;100656.79;;;-3.12;69.16
37066;BME280;22981;43.080;25.550;2023-02-12T04:57:36;100655.67;;;-3.15;69.25
37066;BME280;22981;43.080;25.550;2023-02-12T05:00:05;100660.72;;;-3.12;69.35
37066;BME280;22981;43.080;25.550;2023-02-12T05:02:33;100664.53;;;-3.10;69.38
37066;BME280;22981;43.080;25.550;2023-02-12T05:05:01;100661.44;;;-3.10;69.43
37066;BME280;22981;43.080;25.550;2023-02-12T05:07:29;100670.13;;;-3.09;69.47
37066;BME280;22981;43.080;25.550;2023-02-12T05:09:56;100679.89;;;-3.11;69.52
37066;BME280;22981;43.080;25.550;2023-02-12T05:12:24;100686.75;;;-3.16;69.56
37066;BME280;22981;43.080;25.550;2023-02-12T05:14:51;100682.54;;;-3.18;69.75
37066;BME280;22981;43.080;25.550;2023-02-12T05:17:21;100692.46;;;-3.16;69.82
37066;BME280;22981;43.080;25.550;2023-02-12T05:19:49;100697.47;;;-3.13;69.87
37066;BME280;22981;43.080;25.550;2023-02-12T05:22:16;100699.78;;;-3.09;69.86
37066;BME280;22981;43.080;25.550;2023-02-12T05:24:44;100706.50;;;-3.05;69.79
37066;BME280;22981;43.080;25.550;2023-02-12T05:27:12;100703.05;;;-3.05;69.83
37066;BME280;22981;43.080;25.550;2023-02-12T05:29:40;100705.14;;;-3.10;69.98
37066;BME280;22981;43.080;25.550;2023-02-12T05:32:07;100713.83;;;-3.10;70.04
37066;BME280;22981;43.080;25.550;2023-02-12T05:34:36;100713.36;;;-3.09;70.09
37066;BME280;22981;43.080;25.550;2023-02-12T05:37:03;100715.42;;;-3.07;70.10
37066;BME280;22981;43.080;25.550;2023-02-12T05:39:31;100719.52;;;-3.03;70.07
37066;BME280;22981;43.080;25.550;2023-02-12T05:41:58;100717.14;;;-3.00;70.04
37066;BME280;22981;43.080;25.550;2023-02-12T05:44:26;100725.17;;;-2.96;70.00
37066;BME280;22981;43.080;25.550;2023-02-12T05:46:54;100733.42;;;-2.95;70.01
37066;BME280;22981;43.080;25.550;2023-02-12T05:49:21;100734.98;;;-2.93;70.05
37066;BME280;22981;43.080;25.550;2023-02-12T05:51:49;100744.44;;;-2.90;70.04
37066;BME280;22981;43.080;25.550;2023-02-12T05:54:16;100742.29;;;-2.91;70.02
37066;BME280;22981;43.080;25.550;2023-02-12T05:56:46;100742.59;;;-2.95;70.07
37066;BME280;22981;43.080;25.550;2023-02-12T05:59:19;100747.20;;;-2.99;70.21
37066;BME280;22981;43.080;25.550;2023-02-12T06:01:48;100755.14;;;-3.00;70.26
37066;BME280;22981;43.080;25.550;2023-02-12T06:04:19;100751.12;;;-2.99;70.34
37066;BME280;22981;43.080;25.550;2023-02-12T06:06:49;100754.94;;;-2.97;70.39
37066;BME280;22981;43.080;25.550;2023-02-12T06:09:17;100757.25;;;-2.93;70.35
37066;BME280;22981;43.080;25.550;2023-02-12T06:11:45;100762.38;;;-2.91;70.31
37066;BME280;22981;43.080;25.550;2023-02-12T06:14:15;100760.88;;;-2.88;70.35
37066;BME280;22981;43.080;25.550;2023-02-12T06:16:47;100762.00;;;-2.85;70.32
37066;BME280;22981;43.080;25.550;2023-02-12T06:19:16;100764.31;;;-2.81;70.36
37066;BME280;22981;43.080;25.550;2023-02-12T06:21:43;100767.81;;;-2.74;70.30
37066;BME280;22981;43.080;25.550;2023-02-12T06:24:15;100771.67;;;-2.73;70.24
37066;BME280;22981;43.080;25.550;2023-02-12T06:26:43;100758.09;;;-2.72;70.31
37066;BME280;22981;43.080;25.550;2023-02-12T06:29:11;100762.66;;;-2.69;70.36
37066;BME280;22981;43.080;25.550;2023-02-12T06:31:38;100776.17;;;-2.62;70.35
37066;BME280;22981;43.080;25.550;2023-02-12T06:34:08;100772.52;;;-2.60;70.36
37066;BME280;22981;43.080;25.550;2023-02-12T06:36:37;100776.93;;;-2.60;70.38
37066;BME280;22981;43.080;25.550;2023-02-12T06:39:06;100775.45;;;-2.64;70.49
37066;BME280;22981;43.080;25.550;2023-02-12T06:41:34;100782.73;;;-2.62;70.53
37066;BME280;22981;43.080;25.550;2023-02-12T06:44:02;100780.27;;;-2.58;70.52
37066;BME280;22981;43.080;25.550;2023-02-12T06:46:30;100782.11;;;-2.53;70.50
37066;BME280;22981;43.080;25.550;2023-02-12T06:48:59;100779.65;;;-2.49;70.46
37066;BME280;22981;43.080;25.550;2023-02-12T06:51:27;100786.84;;;-2.45;70.44
37066;BME280;22981;43.080;25.550;2023-02-12T06:53:56;100794.03;;;-2.42;70.46
37066;BME280;22981;43.080;25.550;2023-02-12T06:56:25;100787.95;;;-2.42;70.42
37066;BME280;22981;43.080;25.550;2023-02-12T06:58:54;100798.45;;;-2.42;70.48
37066;BME280;22981;43.080;25.550;2023-02-12T07:01:25;100800.95;;;-2.41;70.58
37066;BME280;22981;43.080;25.550;2023-02-12T07:03:57;100799.44;;;-2.38;70.58
37066;BME280;22981;43.080;25.550;2023-02-12T07:06:26;100794.00;;;-2.35;70.58
37066;BME280;22981;43.080;25.550;2023-02-12T07:08:55;100788.33;;;-2.29;70.59
37066;BME280;22981;43.080;25.550;2023-02-12T07:11:27;100793.41;;;-2.20;70.62
37066;BME280;22981;43.080;25.550;2023-02-12T07:13:55;100786.22;;;-2.11;70.54
37066;BME280;22981;43.080;25.550;2023-02-12T07:16:23;100799.84;;;-2.06;70.43
37066;BME280;22981;43.080;25.550;2023-02-12T07:18:55;100800.40;;;-2.00;70.44
37066;BME280;22981;43.080;25.550;2023-02-12T07:21:26;100799.33;;;-1.98;70.39
37066;BME280;22981;43.080;25.550;2023-02-12T07:23:54;100804.73;;;-1.94;70.37
37066;BME280;22981;43.080;25.550;2023-02-12T07:26:21;100802.58;;;-1.94;70.43
37066;BME280;22981;43.080;25.550;2023-02-12T07:28:50;100809.09;;;-1.87;70.46
37066;BME280;22981;43.080;25.550;2023-02-12T07:31:19;100808.09;;;-1.79;70.42
37066;BME280;22981;43.080;25.550;2023-02-12T07:33:48;100805.86;;;-1.72;70.32
37066;BME280;22981;43.080;25.550;2023-02-12T07:36:18;100803.65;;;-1.66;70.28
37066;BME280;22981;43.080;25.550;2023-02-12T07:38:46;100803.65;;;-1.66;70.27
37066;BME280;22981;43.080;25.550;2023-02-12T07:41:19;100807.47;;;-1.64;70.29
37066;BME280;22981;43.080;25.550;2023-02-12T07:43:51;100807.14;;;-1.60;70.34
37066;BME280;22981;43.080;25.550;2023-02-12T07:46:20;100811.59;;;-1.55;70.35
37066;BME280;22981;43.080;25.550;2023-02-12T07:48:49;100810.22;;;-1.47;70.30
37066;BME280;22981;43.080;25.550;2023-02-12T07:51:17;100813.26;;;-1.41;70.24
37066;BME280;22981;43.080;25.550;2023-02-12T07:53:45;100808.74;;;-1.33;70.18
37066;BME280;22981;43.080;25.550;2023-02-12T07:56:15;100809.16;;;-1.27;70.18
37066;BME280;22981;43.080;25.550;2023-02-12T07:58:45;100810.47;;;-1.27;70.10
37066;BME280;22981;43.080;25.550;2023-02-12T08:01:15;100813.58;;;-1.27;70.07
37066;BME280;22981;43.080;25.550;2023-02-12T08:03:44;100809.87;;;-1.24;70.14
37066;BME280;22981;43.080;25.550;2023-02-12T08:06:14;100810.16;;;-1.16;70.13
37066;BME280;22981;43.080;25.550;2023-02-12T08:08:42;100813.91;;;-1.08;70.12
37066;BME280;22981;43.080;25.550;2023-02-12T08:11:11;100809.31;;;-0.98;70.04
37066;BME280;22981;43.080;25.550;2023-02-12T08:13:39;100808.25;;;-0.90;70.00
37066;BME280;22981;43.080;25.550;2023-02-12T08:16:09;100809.84;;;-0.82;69.94
37066;BME280;22981;43.080;25.550;2023-02-12T08:18:37;100806.77;;;-0.76;69.88
37066;BME280;22981;43.080;25.550;2023-02-12T08:21:12;100806.08;;;-0.72;69.84
37066;BME280;22981;43.080;25.550;2023-02-12T08:23:40;100808.70;;;-0.72;69.91
37066;BME280;22981;43.080;25.550;2023-02-12T08:26:11;100809.67;;;-0.68;69.93
37066;BME280;22981;43.080;25.550;2023-02-12T08:28:41;100810.26;;;-0.64;69.95
37066;BME280;22981;43.080;25.550;2023-02-12T08:31:18;100812.32;;;-0.57;69.92
37066;BME280;22981;43.080;25.550;2023-02-12T08:33:47;100812.59;;;-0.43;69.86
37066;BME280;22981;43.080;25.550;2023-02-12T08:36:17;100817.19;;;-0.22;69.70
37066;BME280;22981;43.080;25.550;2023-02-12T08:38:45;100812.20;;;0.03;69.47
37066;BME280;22981;43.080;25.550;2023-02-12T08:41:15;100814.25;;;0.27;69.14
37066;BME280;22981;43.080;25.550;2023-02-12T08:43:44;100814.57;;;0.50;68.84
37066;BME280;22981;43.080;25.550;2023-02-12T08:46:14;100810.34;;;0.76;68.49
37066;BME280;22981;43.080;25.550;2023-02-12T08:48:42;100809.91;;;0.97;68.16
37066;BME280;22981;43.080;25.550;2023-02-12T08:51:19;100808.99;;;1.19;67.69
37066;BME280;22981;43.080;25.550;2023-02-12T08:53:51;100804.97;;;1.36;67.35
37066;BME280;22981;43.080;25.550;2023-02-12T08:56:17;100811.83;;;1.54;67.12
37066;BME280;22981;43.080;25.550;2023-02-12T08:58:46;100809.47;;;1.72;66.91
37066;BME280;22981;43.080;25.550;2023-02-12T09:01:16;100804.77;;;1.91;66.72
37066;BME280;22981;43.080;25.550;2023-02-12T09:03:45;100813.24;;;2.15;66.34
37066;BME280;22981;43.080;25.550;2023-02-12T09:06:14;100811.00;;;2.76;65.05
37066;BME280;22981;43.080;25.550;2023-02-12T09:08:42;100811.00;;;2.76;65.05
37066;BME280;22981;43.080;25.550;2023-02-12T09:11:17;100813.05;;;3.07;64.41
37066;BME280;22981;43.080;25.550;2023-02-12T09:13:43;100816.36;;;3.34;63.70
37066;BME280;22981;43.080;25.550;2023-02-12T09:16:11;100817.78;;;3.62;63.11
37066;BME280;22981;43.080;25.550;2023-02-12T09:18:39;100825.44;;;3.98;62.37
37066;BME280;22981;43.080;25.550;2023-02-12T09:21:11;100829.77;;;4.36;61.36
37066;BME280;22981;43.080;25.550;2023-02-12T09:23:40;100834.28;;;4.63;60.00
37066;BME280;22981;43.080;25.550;2023-02-12T09:26:09;100836.73;;;4.88;59.15
37066;BME280;22981;43.080;25.550;2023-02-12T09:28:38;100837.08;;;5.07;58.56
37066;BME280;22981;43.080;25.550;2023-02-12T09:31:07;100844.34;;;5.37;57.97
37066;BME280;22981;43.080;25.550;2023-02-12T09:33:36;100854.66;;;5.40;57.24
37066;BME280;22981;43.080;25.550;2023-02-12T09:36:05;100850.02;;;5.24;57.03
37066;BME280;22981;43.080;25.550;2023-02-12T09:38:33;100851.27;;;5.16;56.91
37066;BME280;22981;43.080;25.550;2023-02-12T09:41:18;100856.03;;;5.12;56.87
37066;BME280;22981;43.080;25.550;2023-02-12T09:43:55;100863.02;;;5.13;56.82
37066;BME280;22981;43.080;25.550;2023-02-12T09:46:31;100857.95;;;5.20;56.56
37066;BME280;22981;43.080;25.550;2023-02-12T09:52:04;100862.38;;;5.51;56.18
37066;BME280;22981;43.080;25.550;2023-02-12T09:54:36;100866.79;;;5.42;55.99
37066;BME280;22981;43.080;25.550;2023-02-12T09:57:06;100876.34;;;5.35;55.97
37066;BME280;22981;43.080;25.550;2023-02-12T09:59:39;100877.95;;;5.28;55.93
37066;BME280;22981;43.080;25.550;2023-02-12T10:02:14;100876.98;;;5.15;55.85
37066;BME280;22981;43.080;25.550;2023-02-12T10:04:44;100887.17;;;5.06;56.10
37066;BME280;22981;43.080;25.550;2023-02-12T10:16:03;100879.26;;;4.83;56.00
37066;BME280;22981;43.080;25.550;2023-02-12T10:18:36;100884.83;;;4.89;55.91
37066;BME280;22981;43.080;25.550;2023-02-12T10:21:21;100886.42;;;5.00;55.84
37066;BME280;22981;43.080;25.550;2023-02-12T10:24:22;100889.34;;;5.07;55.43
37066;BME280;22981;43.080;25.550;2023-02-12T10:26:38;100897.23;;;5.16;55.23
37066;BME280;22981;43.080;25.550;2023-02-12T10:29:12;100897.03;;;5.27;54.95
37066;BME280;22981;43.080;25.550;2023-02-12T10:31:41;100894.25;;;5.33;54.42
37066;BME280;22981;43.080;25.550;2023-02-12T10:34:26;100903.30;;;5.40;54.21
37066;BME280;22981;43.080;25.550;2023-02-12T10:36:50;100904.75;;;5.52;54.15
37066;BME280;22981;43.080;25.550;2023-02-12T10:39:23;100904.75;;;5.70;53.96
37066;BME280;22981;43.080;25.550;2023-02-12T10:41:57;100910.20;;;5.87;53.79
37066;BME280;22981;43.080;25.550;2023-02-12T10:44:26;100909.14;;;5.97;53.37
37066;BME280;22981;43.080;25.550;2023-02-12T10:46:54;100904.99;;;5.99;52.90
37066;BME280;22981;43.080;25.550;2023-02-12T10:49:22;100905.32;;;5.96;52.78
37066;BME280;22981;43.080;25.550;2023-02-12T10:54:42;100912.30;;;5.97;52.85
37066;BME280;22981;43.080;25.550;2023-02-12T10:57:28;100912.13;;;5.98;52.89
37066;BME280;22981;43.080;25.550;2023-02-12T10:59:55;100918.58;;;5.92;52.93
37066;BME280;22981;43.080;25.550;2023-02-12T11:02:31;100916.08;;;5.76;53.09
37066;BME280;22981;43.080;25.550;2023-02-12T11:05:19;100916.46;;;5.64;53.43
37066;BME280;22981;43.080;25.550;2023-02-12T11:07:31;100914.87;;;5.53;53.67
37066;BME280;22981;43.080;25.550;2023-02-12T11:09:59;100924.39;;;5.42;53.84
37066;BME280;22981;43.080;25.550;2023-02-12T11:15:21;100915.52;;;5.19;54.09
37066;BME280;22981;43.080;25.550;2023-02-12T11:17:53;100920.91;;;5.14;54.32
37066;BME280;22981;43.080;25.550;2023-02-12T11:20:19;100913.81;;;5.14;54.30
37066;BME280;22981;43.080;25.550;2023-02-12T11:22:55;100915.23;;;5.22;54.35
37066;BME280;22981;43.080;25.550;2023-02-12T11:25:26;100916.22;;;5.39;54.33
37066;BME280;22981;43.080;25.550;2023-02-12T11:28:05;100908.45;;;5.60;54.01
37066;BME280;22981;43.080;25.550;2023-02-12T11:30:32;100913.30;;;5.82;53.60
37066;BME280;22981;43.080;25.550;2023-02-12T11:33:20;100908.58;;;6.12;53.16
37066;BME280;22981;43.080;25.550;2023-02-12T11:35:53;100907.64;;;6.43;52.59
37066;BME280;22981;43.080;25.550;2023-02-12T11:38:24;100906.12;;;6.74;51.89
37066;BME280;22981;43.080;25.550;2023-02-12T11:40:55;100907.39;;;7.00;51.60
37066;BME280;22981;43.080;25.550;2023-02-12T11:43:23;100901.65;;;7.25;51.29
37066;BME280;22981;43.080;25.550;2023-02-12T11:45:53;100898.03;;;7.47;51.13
37066;BME280;22981;43.080;25.550;2023-02-12T11:50:55;100911.04;;;7.74;50.25
37066;BME280;22981;43.080;25.550;2023-02-12T11:53:31;100914.68;;;7.53;50.25
37066;BME280;22981;43.080;25.550;2023-02-12T11:56:01;100921.30;;;7.24;50.55
37066;BME280;22981;43.080;25.550;2023-02-12T11:58:29;100921.20;;;6.96;50.94
37066;BME280;22981;43.080;25.550;2023-02-12T12:04:02;100923.55;;;6.35;51.72
37066;BME280;22981;43.080;25.550;2023-02-12T12:09:28;100917.81;;;6.03;52.46
37066;BME280;22981;43.080;25.550;2023-02-12T12:12:15;100915.59;;;5.95;52.63
37066;BME280;22981;43.080;25.550;2023-02-12T12:14:56;100915.02;;;5.87;52.67
37066;BME280;22981;43.080;25.550;2023-02-12T12:17:47;100929.44;;;5.85;52.71
37066;BME280;22981;43.080;25.550;2023-02-12T12:20:53;100925.55;;;5.75;52.69
37066;BME280;22981;43.080;25.550;2023-02-12T12:23:31;100929.75;;;5.64;52.73
37066;BME280;22981;43.080;25.550;2023-02-12T12:26:07;100927.84;;;5.56;52.84
37066;BME280;22981;43.080;25.550;2023-02-12T12:28:41;100926.63;;;5.50;53.01
37066;BME280;22981;43.080;25.550;2023-02-12T12:31:19;100930.73;;;5.45;52.99
37066;BME280;22981;43.080;25.550;2023-02-12T12:33:50;100926.17;;;5.37;52.99
37066;BME280;22981;43.080;25.550;2023-02-12T12:53:36;100945.91;;;5.07;53.55
37066;BME280;22981;43.080;25.550;2023-02-12T12:56:20;100952.28;;;5.00;53.74
37066;BME280;22981;43.080;25.550;2023-02-12T12:59:08;100947.78;;;4.97;53.94
37066;BME280;22981;43.080;25.550;2023-02-12T13:18:44;100981.27;;;4.27;54.97
37066;BME280;22981;43.080;25.550;2023-02-12T13:21:25;100981.29;;;4.18;55.16
37066;BME280;22981;43.080;25.550;2023-02-12T13:23:57;100985.00;;;4.11;55.30
37066;BME280;22981;43.080;25.550;2023-02-12T13:26:42;100988.05;;;4.07;55.47
37066;BME280;22981;43.080;25.550;2023-02-12T13:29:28;100988.12;;;4.01;55.65
37066;BME280;22981;43.080;25.550;2023-02-12T13:32:03;101003.69;;;4.00;55.81
37066;BME280;22981;43.080;25.550;2023-02-12T13:34:28;101000.13;;;3.95;56.02
37066;BME280;22981;43.080;25.550;2023-02-12T13:37:01;101003.55;;;3.92;56.16
37066;BME280;22981;43.080;25.550;2023-02-12T13:39:34;101005.28;;;3.87;56.28
37066;BME280;22981;43.080;25.550;2023-02-12T13:45:00;101015.95;;;3.82;56.46
37066;BME280;22981;43.080;25.550;2023-02-12T13:47:53;101020.54;;;3.80;56.55
37066;BME280;22981;43.080;25.550;2023-02-12T13:50:30;101023.95;;;3.76;56.62
37066;BME280;22981;43.080;25.550;2023-02-12T13:56:06;101029.80;;;3.70;56.75
37066;BME280;22981;43.080;25.550;2023-02-12T14:01:33;101036.50;;;3.64;56.90
37066;BME280;22981;43.080;25.550;2023-02-12T14:03:40;101038.42;;;3.62;56.97
37066;BME280;22981;43.080;25.550;2023-02-12T14:06:16;101049.16;;;3.61;57.01
37066;BME280;22981;43.080;25.550;2023-02-12T14:09:05;101052.08;;;3.58;57.10
37066;BME280;22981;43.080;25.550;2023-02-12T14:11:23;101054.37;;;3.57;57.18
37066;BME280;22981;43.080;25.550;2023-02-12T14:13:54;101064.25;;;3.55;57.24
37066;BME280;22981;43.080;25.550;2023-02-12T14:19:35;101077.32;;;3.46;57.50
37066;BME280;22981;43.080;25.550;2023-02-12T14:22:11;101077.32;;;3.46;57.50
37066;BME280;22981;43.080;25.550;2023-02-12T14:24:49;101087.45;;;3.47;57.57
37066;BME280;22981;43.080;25.550;2023-02-12T14:27:34;101093.70;;;3.46;57.71
37066;BME280;22981;43.080;25.550;2023-02-12T14:33:08;101101.55;;;3.42;57.87
37066;BME280;22981;43.080;25.550;2023-02-12T14:35:33;101107.59;;;3.38;57.97
37066;BME280;22981;43.080;25.550;2023-02-12T14:38:03;101112.83;;;3.34;58.19
37066;BME280;22981;43.080;25.550;2023-02-12T14:51:45;101134.22;;;3.21;59.34
37066;BME280;22981;43.080;25.550;2023-02-12T14:57:06;101136.39;;;3.16;59.84
37066;BME280;22981;43.080;25.550;2023-02-12T14:59:36;101148.59;;;3.13;60.01
37066;BME280;22981;43.080;25.550;2023-02-12T15:02:04;101151.63;;;3.09;60.42
37066;BME280;22981;43.080;25.550;2023-02-12T15:04:35;101151.63;;;3.09;60.42
37066;BME280;22981;43.080;25.550;2023-02-12T15:07:09;101158.00;;;3.06;60.42
37066;BME280;22981;43.080;25.550;2023-02-12T15:09:47;101164.38;;;3.04;60.58